Time;durP1;ratioP1;P1;durP2;ratioP2;P2;SDS_P1;SDS_P2;PMS_P1;PMS_P2;Temp;Humidity;BMP_temperature;BMP_pressure;BME280_temperature;BME280_humidity;BME280_pressure;Samples;Min_cycle;Max_cycle;Signal;HPM_P1;HPM_P2
2022/08/27 00:02:24;;;;;;;16.33;11.07;;;18.20;99.90;;;;;;5031510;28;20427;-75
2022/08/27 00:04:49;;;;;;;12.03;9.10;;;18.10;99.90;;;;;;5031410;28;20188;-76
2022/08/27 00:07:15;;;;;;;13.10;9.07;;;18.10;99.90;;;;;;5031540;28;20433;-76
2022/08/27 00:09:42;;;;;;;16.30;9.23;;;18.20;99.90;;;;;;5031338;28;21045;-74
2022/08/27 00:12:09;;;;;;;13.83;9.00;;;18.20;99.90;;;;;;5031363;28;20434;-74
2022/08/27 00:14:36;;;;;;;10.80;9.20;;;18.30;99.90;;;;;;5031417;28;20430;-74
2022/08/27 00:17:04;;;;;;;16.07;10.10;;;18.40;99.90;;;;;;5031300;28;20445;-74
2022/08/27 00:19:30;;;;;;;13.17;9.07;;;18.30;99.90;;;;;;5031281;28;20445;-74
2022/08/27 00:21:56;;;;;;;12.57;9.83;;;18.40;99.90;;;;;;5031293;28;20426;-74
2022/08/27 00:24:22;;;;;;;12.80;9.77;;;18.50;99.90;;;;;;5031200;28;20423;-74
2022/08/27 00:26:49;;;;;;;20.00;9.50;;;18.50;99.90;;;;;;5029817;28;20441;-74
2022/08/27 00:29:15;;;;;;;12.70;9.80;;;18.50;99.90;;;;;;5031127;28;20885;-74
2022/08/27 00:31:40;;;;;;;12.10;8.93;;;18.50;99.90;;;;;;5029618;28;20466;-74
2022/08/27 00:34:06;;;;;;;12.37;9.60;;;18.60;99.90;;;;;;5029841;28;20422;-74
2022/08/27 00:36:32;;;;;;;13.43;10.00;;;18.60;99.90;;;;;;5031019;28;20284;-74
2022/08/27 00:38:57;;;;;;;14.87;10.50;;;18.60;99.90;;;;;;5031894;28;20185;-74
2022/08/27 00:41:23;;;;;;;17.47;10.20;;;18.60;99.90;;;;;;5031081;28;20251;-74
2022/08/27 00:43:58;;;;;;;13.30;10.10;;;18.60;99.90;;;;;;5030909;28;20614;-74
2022/08/27 00:46:52;;;;;;;12.40;8.33;;;18.60;99.90;;;;;;5030939;28;20180;-73
2022/08/27 00:49:24;;;;;;;11.23;10.00;;;18.60;99.90;;;;;;5029153;28;20489;-75
2022/08/27 00:52:02;;;;;;;12.20;9.80;;;18.60;99.90;;;;;;5030895;28;20400;-75
2022/08/27 00:54:28;;;;;;;14.80;10.73;;;18.60;99.90;;;;;;5030554;28;21046;-75
2022/08/27 00:56:54;;;;;;;13.73;10.00;;;18.60;99.90;;;;;;5030781;28;20426;-75
2022/08/27 00:59:23;;;;;;;15.07;9.80;;;18.60;99.90;;;;;;5030610;28;20882;-75
2022/08/27 01:04:34;;;;;;;12.90;10.13;;;18.60;99.90;;;;;;5030920;28;20421;-75
2022/08/27 01:07:01;;;;;;;13.47;9.90;;;18.60;99.90;;;;;;5029952;28;20459;-75
2022/08/27 01:09:27;;;;;;;14.07;9.77;;;18.50;99.90;;;;;;5028580;28;20478;-75
2022/08/27 01:11:56;;;;;;;17.30;11.20;;;18.60;99.90;;;;;;5028790;28;20419;-75
2022/08/27 01:14:22;;;;;;;13.97;9.80;;;18.50;99.90;;;;;;5029198;28;20458;-75
2022/08/27 01:16:53;;;;;;;15.40;10.93;;;18.50;99.90;;;;;;5030563;28;20438;-75
2022/08/27 01:19:31;;;;;;;14.07;9.77;;;18.50;99.90;;;;;;5031068;28;21321;-75
2022/08/27 01:22:16;;;;;;;15.30;10.53;;;18.40;99.90;;;;;;5029495;28;20952;-76
2022/08/27 01:24:46;;;;;;;18.50;11.80;;;18.50;99.90;;;;;;5025918;28;20777;-75
2022/08/27 01:27:17;;;;;;;14.50;10.53;;;18.60;99.90;;;;;;5030696;28;20427;-76
2022/08/27 01:29:43;;;;;;;14.47;10.37;;;18.60;99.90;;;;;;5030492;28;20985;-76
2022/08/27 01:32:16;;;;;;;14.67;10.50;;;18.70;99.90;;;;;;5030778;28;20415;-76
2022/08/27 01:34:42;;;;;;;16.67;11.30;;;18.80;99.90;;;;;;5030669;28;20519;-76
2022/08/27 01:37:09;;;;;;;22.17;11.83;;;18.80;99.90;;;;;;5030219;28;20453;-76
2022/08/27 01:39:35;;;;;;;15.73;10.70;;;18.80;99.90;;;;;;5029953;28;20451;-76
2022/08/27 01:42:18;;;;;;;16.23;12.03;;;18.80;99.90;;;;;;5029980;28;20427;-75
2022/08/27 01:44:46;;;;;;;18.00;12.60;;;18.80;99.90;;;;;;5029916;28;20457;-75
2022/08/27 01:47:12;;;;;;;14.23;11.20;;;18.70;99.90;;;;;;5029905;28;20423;-76
2022/08/27 01:49:38;;;;;;;17.90;12.70;;;18.80;99.90;;;;;;5011897;28;21007;-75
2022/08/27 01:52:04;;;;;;;20.43;12.43;;;18.70;99.90;;;;;;5028379;28;20442;-74
2022/08/27 01:54:31;;;;;;;17.47;13.77;;;18.50;99.90;;;;;;5028377;28;20219;-75
2022/08/27 01:56:57;;;;;;;20.47;14.10;;;18.60;99.90;;;;;;5028225;28;20419;-75
2022/08/27 01:59:24;;;;;;;19.53;13.33;;;18.40;99.90;;;;;;5029482;28;20503;-74
2022/08/27 02:01:51;;;;;;;17.83;13.20;;;18.40;99.90;;;;;;5029543;28;20431;-74
2022/08/27 02:04:18;;;;;;;21.07;14.17;;;18.50;99.90;;;;;;5028204;28;20937;-74
2022/08/27 02:06:43;;;;;;;21.27;14.53;;;18.50;99.90;;;;;;5028446;28;20504;-74
2022/08/27 02:09:09;;;;;;;19.03;14.87;;;18.60;99.90;;;;;;5029155;28;20574;-74
2022/08/27 02:11:35;;;;;;;17.80;13.70;;;18.70;99.90;;;;;;5029331;28;20188;-74
2022/08/27 02:14:00;;;;;;;24.30;15.13;;;18.70;99.90;;;;;;5029273;28;20261;-74
2022/08/27 02:16:26;;;;;;;25.13;13.43;;;18.70;99.90;;;;;;5029999;28;20185;-74
2022/08/27 02:18:53;;;;;;;20.30;14.63;;;18.70;99.90;;;;;;5029430;28;20230;-75
2022/08/27 02:21:19;;;;;;;22.20;16.33;;;18.60;99.90;;;;;;5027649;28;20210;-74
2022/08/27 02:23:45;;;;;;;27.07;15.90;;;18.60;99.90;;;;;;5029024;28;20734;-74
2022/08/27 02:26:11;;;;;;;24.87;16.67;;;18.50;99.90;;;;;;5028982;28;20915;-74
2022/08/27 02:28:37;;;;;;;27.83;17.10;;;18.50;99.90;;;;;;5027625;28;20573;-74
2022/08/27 02:31:03;;;;;;;24.57;17.70;;;18.50;99.90;;;;;;5028839;28;20511;-74
2022/08/27 02:33:32;;;;;;;24.90;18.43;;;18.50;99.90;;;;;;5028923;28;20663;-74
2022/08/27 02:35:58;;;;;;;26.87;19.03;;;18.40;99.90;;;;;;5028857;28;20422;-74
2022/08/27 02:38:24;;;;;;;28.30;18.57;;;18.40;99.90;;;;;;5028875;28;20428;-75
2022/08/27 02:40:50;;;;;;;26.70;19.20;;;18.40;99.90;;;;;;5028964;28;20196;-74
2022/08/27 02:43:15;;;;;;;31.90;22.27;;;18.30;99.90;;;;;;5027272;28;20431;-74
2022/08/27 02:45:41;;;;;;;33.13;20.67;;;18.30;99.90;;;;;;5028800;28;20419;-74
2022/08/27 02:48:08;;;;;;;33.33;20.13;;;18.40;99.90;;;;;;5028639;28;20188;-75
2022/08/27 02:50:34;;;;;;;29.90;20.87;;;18.50;99.90;;;;;;5028812;28;20873;-75
2022/08/27 02:53:01;;;;;;;33.07;19.97;;;18.60;99.90;;;;;;5028471;28;20418;-75
2022/08/27 02:55:27;;;;;;;32.30;21.00;;;18.60;99.90;;;;;;5028823;28;20419;-75
2022/08/27 02:57:53;;;;;;;30.53;20.57;;;18.60;99.90;;;;;;5028620;28;20442;-75
2022/08/27 03:00:20;;;;;;;38.07;21.60;;;18.70;99.90;;;;;;5028599;28;20426;-75
2022/08/27 03:02:46;;;;;;;34.10;19.20;;;18.80;99.90;;;;;;5027116;28;20427;-76
2022/08/27 03:05:13;;;;;;;30.97;22.17;;;18.70;99.90;;;;;;5028548;28;20426;-76
2022/08/27 03:07:40;;;;;;;31.20;20.07;;;18.70;99.90;;;;;;5028734;28;20411;-76
2022/08/27 03:10:08;;;;;;;26.03;20.33;;;18.60;99.90;;;;;;5028477;28;20505;-75
2022/08/27 03:12:35;;;;;;;28.80;20.93;;;18.60;99.90;;;;;;5028348;28;20859;-75
2022/08/27 03:15:05;;;;;;;32.40;20.47;;;18.60;99.90;;;;;;5028441;28;20935;-75
2022/08/27 03:20:15;;;;;;;27.30;20.07;;;18.60;99.90;;;;;;5028541;28;20442;-75
2022/08/27 03:22:41;;;;;;;32.57;22.90;;;18.70;99.90;;;;;;5028410;28;20426;-75
2022/08/27 03:25:07;;;;;;;34.13;21.93;;;18.60;99.90;;;;;;5028577;28;20181;-75
2022/08/27 03:27:33;;;;;;;32.30;22.47;;;18.70;99.90;;;;;;5026840;28;20231;-75
2022/08/27 03:30:02;;;;;;;40.50;26.93;;;18.60;99.90;;;;;;5028155;28;20647;-75
2022/08/27 03:32:28;;;;;;;42.40;26.03;;;18.70;99.90;;;;;;5031487;28;20605;-75
2022/08/27 03:34:57;;;;;;;36.13;28.20;;;18.70;99.90;;;;;;5031764;28;20522;-75
2022/08/27 03:37:24;;;;;;;40.03;28.03;;;18.70;99.90;;;;;;5031935;28;20186;-75
2022/08/27 03:39:49;;;;;;;44.00;30.03;;;18.70;99.90;;;;;;5031745;28;20454;-75
2022/08/27 03:42:15;;;;;;;45.10;28.50;;;18.80;99.90;;;;;;5031731;28;20742;-75
2022/08/27 03:44:41;;;;;;;44.17;29.00;;;18.80;99.90;;;;;;5031834;28;20199;-75
2022/08/27 03:47:06;;;;;;;41.90;28.30;;;18.80;99.90;;;;;;5030237;28;20195;-76
2022/08/27 03:49:32;;;;;;;40.57;30.40;;;18.80;99.90;;;;;;5029975;28;20216;-76
2022/08/27 03:51:57;;;;;;;42.23;30.17;;;18.90;99.90;;;;;;5030086;28;20207;-75
2022/08/27 03:54:24;;;;;;;41.27;29.33;;;18.90;99.90;;;;;;5032036;28;20585;-75
2022/08/27 03:56:50;;;;;;;41.33;32.03;;;18.90;99.90;;;;;;5031978;28;20203;-76
2022/08/27 03:59:15;;;;;;;44.37;32.07;;;18.90;99.90;;;;;;5031943;28;20507;-75
2022/08/27 04:01:43;;;;;;;35.80;28.90;;;19.00;99.90;;;;;;5031497;28;20455;-75
2022/08/27 04:04:08;;;;;;;41.87;30.00;;;19.00;99.90;;;;;;5032107;28;20187;-76
2022/08/27 04:06:34;;;;;;;43.60;30.57;;;18.90;99.90;;;;;;5031458;28;20423;-77
2022/08/27 04:09:01;;;;;;;48.60;31.50;;;18.90;99.90;;;;;;5029735;28;20223;-77
2022/08/27 04:11:28;;;;;;;33.67;26.30;;;19.00;99.90;;;;;;5031975;28;20460;-77
2022/08/27 04:13:54;;;;;;;40.17;27.30;;;19.00;99.90;;;;;;5031387;28;20447;-77
2022/08/27 04:16:24;;;;;;;42.00;29.50;;;19.00;99.90;;;;;;5031294;28;20445;-78
2022/08/27 04:18:50;;;;;;;39.93;27.40;;;19.00;99.90;;;;;;5030614;28;20788;-76
2022/08/27 04:21:15;;;;;;;42.40;27.67;;;18.90;99.90;;;;;;5029987;28;20503;-77
2022/08/27 04:23:41;;;;;;;46.83;28.30;;;19.00;99.90;;;;;;5031310;28;20212;-76
2022/08/27 04:26:09;;;;;;;42.27;27.60;;;18.90;99.90;;;;;;5029745;28;20192;-77
2022/08/27 04:28:36;;;;;;;44.40;30.33;;;19.00;99.90;;;;;;5029467;28;20476;-77
2022/08/27 04:31:02;;;;;;;42.50;28.90;;;18.90;99.90;;;;;;5029478;28;20877;-78
2022/08/27 04:33:30;;;;;;;39.20;28.57;;;18.90;99.90;;;;;;5030033;28;20916;-79
2022/08/27 04:36:08;;;;;;;37.60;26.77;;;18.90;99.90;;;;;;5029970;28;20428;-78
2022/08/27 04:38:35;;;;;;;51.43;30.00;;;18.90;99.90;;;;;;5031120;28;20415;-77
2022/08/27 04:41:18;;;;;;;44.00;27.90;;;18.90;99.90;;;;;;5029363;28;20455;-78
2022/08/27 04:43:57;;;;;;;37.57;27.60;;;18.90;99.90;;;;;;5030963;28;20484;-77
2022/08/27 04:46:27;;;;;;;35.10;25.57;;;18.90;99.90;;;;;;5029481;28;20435;-77
2022/08/27 04:48:59;;;;;;;41.40;27.37;;;19.00;99.90;;;;;;5030805;28;20469;-77
2022/08/27 04:51:25;;;;;;;48.73;28.80;;;18.90;99.90;;;;;;5029693;28;20542;-77
2022/08/27 04:53:52;;;;;;;41.63;29.33;;;18.90;99.90;;;;;;5030701;28;20418;-77
2022/08/27 04:56:26;;;;;;;39.37;26.67;;;18.90;99.90;;;;;;5030789;28;20804;-77
2022/08/27 04:58:52;;;;;;;33.57;25.67;;;18.90;99.90;;;;;;5030724;28;20427;-77
2022/08/27 05:01:25;;;;;;;39.53;26.83;;;18.90;99.90;;;;;;5028918;28;20452;-77
2022/08/27 05:03:51;;;;;;;41.83;28.47;;;18.90;99.90;;;;;;5030303;28;20418;-76
2022/08/27 05:06:17;;;;;;;44.53;29.90;;;18.90;99.90;;;;;;5030236;28;20732;-77
2022/08/27 05:08:43;;;;;;;40.30;27.67;;;18.90;99.90;;;;;;5030417;28;20600;-76
2022/08/27 05:11:13;;;;;;;41.93;27.50;;;18.90;99.90;;;;;;5030592;28;20562;-76
2022/08/27 05:13:40;;;;;;;39.00;29.03;;;18.90;99.90;;;;;;5029133;28;20443;-79
2022/08/27 05:16:08;;;;;;;39.60;26.60;;;18.90;99.90;;;;;;5029572;28;20423;-79
2022/08/27 05:18:36;;;;;;;43.57;27.73;;;18.80;99.90;;;;;;5029369;28;20783;-78
2022/08/27 05:21:02;;;;;;;41.53;28.57;;;18.80;99.90;;;;;;5028769;28;20447;-79
2022/08/27 05:23:28;;;;;;;41.27;27.10;;;18.80;99.90;;;;;;5028782;28;20558;-78
2022/08/27 05:25:54;;;;;;;44.33;28.60;;;18.80;99.90;;;;;;5012177;28;20893;-76
2022/08/27 05:28:22;;;;;;;37.70;27.40;;;18.80;99.90;;;;;;5029849;28;20690;-75
2022/08/27 05:30:51;;;;;;;44.37;28.63;;;18.80;99.90;;;;;;5028470;28;20450;-75
2022/08/27 05:33:23;;;;;;;51.80;31.60;;;18.80;99.90;;;;;;5029303;28;20510;-77
2022/08/27 05:35:51;;;;;;;42.83;28.00;;;18.70;99.90;;;;;;5029727;28;21102;-77
2022/08/27 05:38:18;;;;;;;40.80;28.33;;;18.70;99.90;;;;;;5028386;28;20470;-76
2022/08/27 05:40:43;;;;;;;37.50;26.50;;;18.60;99.90;;;;;;5029571;28;20448;-76
2022/08/27 05:43:11;;;;;;;36.87;26.37;;;18.60;99.90;;;;;;5029644;28;20513;-76
2022/08/27 05:45:47;;;;;;;36.50;27.27;;;18.70;99.90;;;;;;5028351;28;20187;-76
2022/08/27 05:48:16;;;;;;;38.03;25.80;;;18.80;99.90;;;;;;5029263;28;20424;-76
2022/08/27 05:50:43;;;;;;;35.63;26.20;;;18.80;99.90;;;;;;5027890;28;20550;-76
2022/08/27 05:53:11;;;;;;;33.40;25.53;;;18.80;99.90;;;;;;5028054;28;20773;-76
2022/08/27 05:55:42;;;;;;;36.13;25.20;;;18.80;99.90;;;;;;5028534;28;20419;-76
2022/08/27 06:01:03;;;;;;;35.30;24.43;;;18.80;99.90;;;;;;5012298;28;20804;-76
2022/08/27 06:01:03;;;;;;;30.93;24.07;;;18.90;99.90;;;;;;5028725;28;20846;-77
2022/08/27 06:03:32;;;;;;;35.80;25.07;;;18.90;99.90;;;;;;5028956;28;20926;-76
2022/08/27 06:06:09;;;;;;;37.77;26.97;;;18.90;99.90;;;;;;5029955;28;20414;-76
2022/08/27 06:08:39;;;;;;;32.70;23.70;;;18.80;99.90;;;;;;5029871;28;20545;-76
2022/08/27 06:11:06;;;;;;;37.80;27.30;;;18.80;99.90;;;;;;5028665;28;20437;-77
2022/08/27 06:13:34;;;;;;;35.80;25.30;;;18.90;99.90;;;;;;5030268;28;20449;-76
2022/08/27 06:16:15;;;;;;;36.10;25.27;;;19.00;99.90;;;;;;5030579;28;20451;-75
2022/08/27 06:18:42;;;;;;;33.03;24.73;;;19.10;99.90;;;;;;5028845;28;20434;-76
2022/08/27 06:21:08;;;;;;;36.13;24.10;;;19.20;99.90;;;;;;5031386;28;20916;-75
2022/08/27 06:23:34;;;;;;;28.53;21.40;;;19.20;99.90;;;;;;5034141;28;20518;-75
2022/08/27 06:26:00;;;;;;;32.50;23.43;;;19.20;99.90;;;;;;5032855;28;20219;-76
2022/08/27 06:28:30;;;;;;;31.03;23.53;;;19.30;99.90;;;;;;5032532;28;20462;-78
2022/08/27 06:31:14;;;;;;;33.80;24.57;;;19.40;99.90;;;;;;5031917;28;20430;-76
2022/08/27 06:33:41;;;;;;;33.03;23.27;;;19.40;99.90;;;;;;5031701;28;20511;-75
2022/08/27 06:36:09;;;;;;;32.17;22.27;;;19.40;99.90;;;;;;5030913;28;20912;-76
2022/08/27 06:38:36;;;;;;;32.60;23.97;;;19.40;99.90;;;;;;5030495;28;20440;-77
2022/08/27 06:41:06;;;;;;;33.03;25.37;;;19.50;99.90;;;;;;5030792;28;20993;-76
2022/08/27 06:43:35;;;;;;;39.07;26.83;;;19.50;99.90;;;;;;5030958;28;20487;-75
2022/08/27 06:46:06;;;;;;;32.57;25.93;;;19.60;99.90;;;;;;5029980;28;21018;-77
2022/08/27 06:48:33;;;;;;;36.57;26.83;;;19.60;99.90;;;;;;5031335;28;20542;-75
2022/08/27 06:50:59;;;;;;;40.70;25.70;;;19.60;99.90;;;;;;5031754;28;20446;-76
2022/08/27 06:53:25;;;;;;;36.37;25.30;;;19.70;99.90;;;;;;5030210;28;20468;-76
2022/08/27 06:55:51;;;;;;;38.30;28.57;;;19.70;99.90;;;;;;5030043;28;20438;-76
2022/08/27 06:58:18;;;;;;;40.27;29.60;;;19.70;99.90;;;;;;5030998;28;20785;-76
2022/08/27 07:00:47;;;;;;;39.83;29.57;;;19.80;99.90;;;;;;5029892;28;20431;-75
2022/08/27 07:03:13;;;;;;;39.90;29.03;;;19.80;99.90;;;;;;5029338;28;20431;-75
2022/08/27 07:05:39;;;;;;;37.73;28.67;;;19.80;99.90;;;;;;5029238;28;20833;-76
2022/08/27 07:08:07;;;;;;;39.73;28.90;;;19.80;99.90;;;;;;5033982;28;20204;-75
2022/08/27 07:10:33;;;;;;;36.70;28.50;;;19.80;99.90;;;;;;5034321;28;20559;-77
2022/08/27 07:12:59;;;;;;;35.37;28.70;;;19.90;99.90;;;;;;5032828;28;21080;-76
2022/08/27 07:15:26;;;;;;;34.60;26.27;;;19.90;99.90;;;;;;5033124;28;20419;-76
2022/08/27 07:17:51;;;;;;;33.70;26.53;;;19.90;99.90;;;;;;5033028;28;20419;-76
2022/08/27 07:20:18;;;;;;;35.30;28.40;;;19.90;99.90;;;;;;5031657;28;20442;-76
2022/08/27 07:22:46;;;;;;;38.23;28.50;;;19.90;99.90;;;;;;5031014;28;20188;-76
2022/08/27 07:25:18;;;;;;;34.83;28.27;;;19.90;99.90;;;;;;5031088;28;20411;-76
2022/08/27 07:27:44;;;;;;;38.97;27.90;;;20.00;99.90;;;;;;5031257;28;21247;-77
2022/08/27 07:30:12;;;;;;;37.10;27.13;;;20.00;99.90;;;;;;5030633;28;20473;-77
2022/08/27 07:32:38;;;;;;;41.40;27.50;;;19.90;99.90;;;;;;5030718;28;20787;-76
2022/08/27 07:35:08;;;;;;;38.87;27.67;;;19.90;99.90;;;;;;5012804;28;20434;-76
2022/08/27 07:37:34;;;;;;;39.13;28.90;;;19.90;99.90;;;;;;5030668;28;20815;-77
2022/08/27 07:40:01;;;;;;;38.67;28.70;;;19.90;99.90;;;;;;5030623;28;20450;-76
2022/08/27 07:45:14;;;;;;;42.53;29.87;;;19.90;99.90;;;;;;5030928;28;20467;-77
2022/08/27 07:47:39;;;;;;;47.07;33.53;;;19.90;99.90;;;;;;5030597;28;20421;-76
2022/08/27 07:50:06;;;;;;;62.17;35.10;;;19.90;99.90;;;;;;5029087;28;20255;-76
2022/08/27 07:52:32;;;;;;;43.93;33.80;;;19.80;99.90;;;;;;5030615;28;20182;-77
2022/08/27 07:54:58;;;;;;;48.23;32.87;;;19.80;99.90;;;;;;5030583;28;21008;-75
2022/08/27 07:57:23;;;;;;;47.50;33.23;;;19.80;99.90;;;;;;5030412;28;20513;-76
2022/08/27 07:59:49;;;;;;;45.67;33.30;;;19.80;99.90;;;;;;5030190;28;20242;-76
2022/08/27 08:02:15;;;;;;;50.67;34.67;;;19.80;99.90;;;;;;5029036;28;20198;-76
2022/08/27 08:04:40;;;;;;;56.93;35.47;;;19.80;99.90;;;;;;5029087;28;20266;-76
2022/08/27 08:07:06;;;;;;;51.00;34.67;;;19.80;99.90;;;;;;5012878;28;20221;-77
2022/08/27 08:09:32;;;;;;;48.50;34.97;;;19.90;99.90;;;;;;5030531;28;20311;-76
2022/08/27 08:11:57;;;;;;;53.97;36.27;;;19.90;99.90;;;;;;5029105;28;20184;-77
2022/08/27 08:14:23;;;;;;;47.40;32.80;;;19.90;99.90;;;;;;5029065;28;20207;-76
2022/08/27 08:16:49;;;;;;;50.67;36.93;;;19.90;99.90;;;;;;5028352;28;20185;-76
2022/08/27 08:19:14;;;;;;;52.40;35.13;;;19.90;99.90;;;;;;5030310;28;20262;-77
2022/08/27 08:21:41;;;;;;;56.27;36.03;;;19.90;99.90;;;;;;5028791;28;20192;-77
2022/08/27 08:24:07;;;;;;;49.93;36.30;;;19.90;99.90;;;;;;5030298;28;20184;-77
2022/08/27 08:26:32;;;;;;;54.20;38.17;;;19.90;99.90;;;;;;5030110;28;20430;-76
2022/08/27 08:28:59;;;;;;;49.07;35.70;;;19.90;99.90;;;;;;5028396;28;20219;-77
2022/08/27 08:31:26;;;;;;;52.43;36.43;;;19.90;99.90;;;;;;5029648;28;20299;-76
2022/08/27 08:33:52;;;;;;;55.00;37.27;;;19.90;99.90;;;;;;5029812;28;20415;-76
2022/08/27 08:36:18;;;;;;;56.17;39.20;;;19.90;99.90;;;;;;5029612;28;20415;-76
2022/08/27 08:38:46;;;;;;;58.07;39.50;;;19.90;99.90;;;;;;5028252;28;20473;-76
2022/08/27 08:41:36;;;;;;;57.80;38.27;;;20.00;99.90;;;;;;5029761;28;20494;-76
2022/08/27 08:44:13;;;;;;;64.57;40.37;;;20.00;99.90;;;;;;5029651;28;20427;-76
2022/08/27 08:46:54;;;;;;;67.43;43.20;;;20.10;99.90;;;;;;5028048;28;20427;-76
2022/08/27 08:49:22;;;;;;;62.17;42.37;;;20.20;99.90;;;;;;5029767;28;20507;-76
2022/08/27 08:51:50;;;;;;;60.50;42.53;;;20.20;99.90;;;;;;5030422;28;20411;-76
2022/08/27 08:54:22;;;;;;;60.43;41.20;;;20.20;99.90;;;;;;5028516;28;20435;-77
2022/08/27 08:56:56;;;;;;;60.90;40.50;;;20.30;99.90;;;;;;5029731;28;20919;-77
2022/08/27 08:59:32;;;;;;;67.03;42.33;;;20.20;99.90;;;;;;5012068;28;20453;-77
2022/08/27 09:01:58;;;;;;;60.70;42.60;;;20.20;99.90;;;;;;5029578;28;20454;-76
2022/08/27 09:04:28;;;;;;;60.50;41.33;;;20.20;99.90;;;;;;5029042;28;20915;-77
2022/08/27 09:07:19;;;;;;;54.97;39.93;;;20.20;99.90;;;;;;5029174;28;20423;-77
2022/08/27 09:10:25;;;;;;;59.27;41.07;;;20.20;99.90;;;;;;5028603;28;20472;-76
2022/08/27 09:12:54;;;;;;;65.80;43.33;;;20.10;99.90;;;;;;5027158;28;21031;-76
2022/08/27 09:15:25;;;;;;;63.70;42.60;;;20.00;99.90;;;;;;5028889;28;20442;-77
2022/08/27 09:17:51;;;;;;;59.67;38.70;;;20.00;99.90;;;;;;5028883;28;20922;-77
2022/08/27 09:20:20;;;;;;;64.97;45.50;;;19.90;99.90;;;;;;5027356;28;20449;-76
2022/08/27 09:23:07;;;;;;;81.13;47.27;;;19.90;99.90;;;;;;5027270;28;20273;-77
2022/08/27 09:25:37;;;;;;;92.77;48.70;;;19.80;99.90;;;;;;5026898;28;20461;-77
2022/08/27 09:31:05;;;;;;;69.40;41.83;;;19.60;99.90;;;;;;5027395;28;20439;-77
2022/08/27 09:33:30;;;;;;;72.73;43.63;;;19.40;99.90;;;;;;5028350;28;20494;-77
2022/08/27 09:36:09;;;;;;;66.73;45.77;;;19.40;99.90;;;;;;5026840;28;20419;-77
2022/08/27 09:38:35;;;;;;;61.13;40.57;;;19.30;99.90;;;;;;5028188;28;20650;-77
2022/08/27 09:41:19;;;;;;;68.87;43.40;;;19.30;99.90;;;;;;5026610;28;20447;-77
2022/08/27 09:43:59;;;;;;;69.10;43.57;;;19.30;99.90;;;;;;5028156;28;20575;-76
2022/08/27 09:46:25;;;;;;;82.13;44.43;;;19.40;99.90;;;;;;5028537;28;20488;-77
2022/08/27 09:48:52;;;;;;;70.50;41.50;;;19.40;99.90;;;;;;5010146;28;20495;-76
2022/08/27 09:51:26;;;;;;;75.03;43.67;;;19.40;99.90;;;;;;5027901;28;20518;-76
2022/08/27 09:54:00;;;;;;;63.83;41.10;;;19.40;99.90;;;;;;5027891;28;20497;-77
2022/08/27 09:56:45;;;;;;;62.43;41.60;;;19.40;99.90;;;;;;5027806;28;20500;-76
2022/08/27 09:59:24;;;;;;;59.13;38.40;;;19.30;99.90;;;;;;5026060;28;20427;-77
2022/08/27 10:02:01;;;;;;;72.43;42.47;;;19.30;99.90;;;;;;5027615;28;20435;-77
2022/08/27 10:04:39;;;;;;;61.70;42.07;;;19.30;99.90;;;;;;5026433;28;20433;-76
2022/08/27 10:07:17;;;;;;;97.67;51.23;;;19.20;99.90;;;;;;5027642;28;20426;-76
2022/08/27 10:09:51;;;;;;;87.23;49.53;;;19.10;99.90;;;;;;5027702;28;20495;-77
2022/08/27 10:12:22;;;;;;;81.80;47.13;;;19.00;99.90;;;;;;5027807;28;20434;-77
2022/08/27 10:14:53;;;;;;;72.43;42.10;;;18.80;99.90;;;;;;5028068;28;20415;-77
2022/08/27 10:17:36;;;;;;;96.03;44.80;;;18.60;99.90;;;;;;5026228;28;20505;-75
2022/08/27 10:20:13;;;;;;;72.23;45.70;;;18.70;99.90;;;;;;5026151;28;20483;-78
2022/08/27 10:22:57;;;;;;;124.43;49.90;;;18.80;99.90;;;;;;5027937;28;20884;-77
2022/08/27 10:25:40;;;;;;;97.23;42.90;;;18.90;99.90;;;;;;5028332;28;20532;-76
2022/08/27 10:28:35;;;;;;;69.40;40.23;;;18.90;99.90;;;;;;5026696;28;20430;-78
2022/08/27 10:31:11;;;;;;;68.83;34.40;;;18.90;99.90;;;;;;5027698;28;20534;-78
2022/08/27 10:34:11;;;;;;;46.33;31.80;;;18.90;99.90;;;;;;5026221;28;20943;-78
2022/08/27 10:37:11;;;;;;;47.30;27.13;;;18.90;99.90;;;;;;5030287;28;20420;-77
2022/08/27 10:40:02;;;;;;;49.43;29.60;;;18.90;99.90;;;;;;5024189;28;20446;-78
2022/08/27 10:43:09;;;;;;;49.07;30.20;;;19.00;99.90;;;;;;5027952;28;20876;-77
2022/08/27 10:46:22;;;;;;;50.27;30.20;;;19.00;99.90;;;;;;5027136;28;20503;-77
2022/08/27 10:49:13;;;;;;;26.33;20.50;;;18.80;99.90;;;;;;5027073;28;20463;-78
2022/08/27 10:52:00;;;;;;;33.30;21.37;;;18.90;99.90;;;;;;5026764;28;20421;-77
2022/08/27 10:54:35;;;;;;;18.40;14.73;;;19.00;99.90;;;;;;5027202;28;20414;-76
2022/08/27 10:57:11;;;;;;;15.20;12.63;;;19.00;99.90;;;;;;5026983;28;20411;-77
2022/08/27 10:59:57;;;;;;;20.43;12.23;;;18.90;99.90;;;;;;5026963;28;20489;-77
2022/08/27 11:02:41;;;;;;;15.70;11.50;;;19.00;99.90;;;;;;5027775;28;20395;-77
2022/08/27 11:05:25;;;;;;;12.00;10.73;;;19.00;99.90;;;;;;5027906;28;20419;-77
2022/08/27 11:08:06;;;;;;;13.60;11.00;;;18.90;99.90;;;;;;5027015;28;20450;-77
2022/08/27 11:10:35;;;;;;;13.97;11.17;;;18.90;99.90;;;;;;5027088;28;20553;-77
2022/08/27 11:13:19;;;;;;;12.20;10.10;;;19.00;99.90;;;;;;5025765;28;20451;-77
2022/08/27 11:15:55;;;;;;;15.47;12.33;;;19.00;99.90;;;;;;5027448;28;20421;-76
2022/08/27 11:18:33;;;;;;;12.40;11.10;;;19.10;99.90;;;;;;5025847;28;20415;-77
2022/08/27 11:21:14;;;;;;;18.67;11.67;;;19.20;99.90;;;;;;5026585;28;20940;-77
2022/08/27 11:23:47;;;;;;;16.93;12.50;;;19.30;99.90;;;;;;5027239;28;20400;-76
2022/08/27 11:26:13;;;;;;;13.30;11.50;;;19.40;99.90;;;;;;5026203;28;20426;-77
2022/08/27 11:28:41;;;;;;;13.47;10.87;;;19.40;99.90;;;;;;5027349;28;20470;-78
2022/08/27 11:31:40;;;;;;;13.83;11.70;;;19.40;99.90;;;;;;5026809;28;20429;-77
2022/08/27 11:34:31;;;;;;;16.10;12.83;;;19.50;99.90;;;;;;5023284;28;20430;-78
2022/08/27 11:37:23;;;;;;;15.13;13.47;;;19.50;99.90;;;;;;5027235;28;20896;-78
2022/08/27 11:39:57;;;;;;;20.13;15.87;;;19.60;99.90;;;;;;5026829;28;20427;-78
2022/08/27 11:42:44;;;;;;;19.23;14.93;;;19.60;99.90;;;;;;5027442;28;20922;-77
2022/08/27 11:45:27;;;;;;;20.90;18.23;;;19.70;99.90;;;;;;5024470;28;20429;-78
2022/08/27 11:47:56;;;;;;;22.37;17.73;;;19.80;99.90;;;;;;5028367;28;20408;-78
2022/08/27 11:50:23;;;;;;;21.10;17.47;;;19.90;99.90;;;;;;5026400;28;20558;-76
2022/08/27 11:52:55;;;;;;;26.13;19.20;;;19.90;99.90;;;;;;5029805;28;20469;-79
2022/08/27 11:55:21;;;;;;;25.97;19.03;;;20.00;99.90;;;;;;5029789;28;20450;-75
2022/08/27 11:57:49;;;;;;;20.37;16.83;;;20.20;99.90;;;;;;5030083;28;20450;-77
2022/08/27 12:00:25;;;;;;;18.43;15.80;;;20.30;99.90;;;;;;5031131;28;20218;-78
2022/08/27 12:03:00;;;;;;;20.67;17.10;;;20.50;99.90;;;;;;5031000;28;20414;-77
2022/08/27 12:05:45;;;;;;;20.80;16.90;;;20.60;99.90;;;;;;5030932;28;20430;-76
2022/08/27 12:08:32;;;;;;;16.43;14.33;;;20.70;99.90;;;;;;5030865;28;20484;-77
2022/08/27 12:11:28;;;;;;;15.83;14.13;;;20.80;99.90;;;;;;5029177;28;20971;-77
2022/08/27 12:14:07;;;;;;;14.70;12.63;;;20.80;99.90;;;;;;5030626;28;20939;-75
2022/08/27 12:16:53;;;;;;;14.43;12.93;;;20.80;99.90;;;;;;5031496;28;20415;-77
2022/08/27 12:19:55;;;;;;;15.73;14.03;;;20.80;99.90;;;;;;5032725;28;20427;-79
2022/08/27 12:26:11;;;;;;;22.37;16.90;;;20.90;99.90;;;;;;5011433;28;20387;-77
2022/08/27 12:28:37;;;;;;;16.80;14.80;;;20.90;99.90;;;;;;5032798;28;20468;-77
2022/08/27 12:31:05;;;;;;;19.60;13.63;;;20.80;99.90;;;;;;5031505;28;20443;-77
2022/08/27 12:33:40;;;;;;;15.13;13.43;;;20.80;99.90;;;;;;5031422;28;20184;-77
2022/08/27 12:36:20;;;;;;;14.50;12.73;;;20.90;99.90;;;;;;5033262;28;20559;-77
2022/08/27 12:38:54;;;;;;;13.47;12.07;;;20.90;99.90;;;;;;5032998;28;20509;-76
2022/08/27 12:41:37;;;;;;;12.27;11.03;;;21.00;99.90;;;;;;5031204;28;20446;-78
2022/08/27 12:44:12;;;;;;;12.37;10.83;;;21.00;99.90;;;;;;5033158;28;20920;-78
2022/08/27 12:46:46;;;;;;;11.43;10.23;;;21.10;99.90;;;;;;5032687;28;20807;-78
2022/08/27 12:49:18;;;;;;;10.90;9.90;;;21.20;99.90;;;;;;5032399;28;20462;-79
2022/08/27 12:51:44;;;;;;;11.27;10.00;;;21.20;99.90;;;;;;5031329;28;20423;-78
2022/08/27 12:54:09;;;;;;;11.40;10.30;;;21.20;99.90;;;;;;5032398;28;20411;-78
2022/08/27 12:56:47;;;;;;;11.03;9.00;;;21.30;99.90;;;;;;5032102;28;20443;-78
2022/08/27 12:59:43;;;;;;;12.47;11.17;;;21.20;99.90;;;;;;5031684;28;20263;-79
2022/08/27 13:02:18;;;;;;;12.63;11.07;;;21.20;99.90;;;;;;5032053;28;21064;-77
2022/08/27 13:04:45;;;;;;;10.97;8.63;;;21.10;99.90;;;;;;5031875;28;20407;-78